ポンペイ島 の空港の天気 - METARとTAF

ポンペイ国際空港 ( PTPN / PNI ) - ミクロネシア連邦 ポンペイ島
飛行場実況気象(Metar)
観測時間09/19 01:50 +11 (09/18 14:50 UTC)
風向・風速東 2m/s
視程10km以上
天気現象
全天の4割程度の雲 雲底高度 550m
全天の8割程度の雲 雲底高度 3960m
全天を覆う雲 雲底高度 9140m
気温27℃
湿度94%
気圧1010hPa
METARPTPN 181450Z 08004KT 15SM SCT018 BKN130 OVC300 27/26 A2983 RMK LAST
過去の天気等 Google飛行場航空写真 Wunderground天気予報

過去48時間のMETAR

飛行場予報(TAF)
発表時間: 9/18 22:57 +11 (9/18 11:57 UTC)
予報対象時間: 18日23時 +11 ~ 19日23時 +11
風向・風速南東 2m/s
視程10km以上
天気現象周辺でしゅう雨
全天の4割程度の雲 雲底高度 550m
全天の8割程度の雲 雲底高度 3960m
TAF COR PTPN 181157Z 1812/1912 13004KT P6SM VCSH SCT018 BKN130